createdAt,value
2022-10-08T00:01:10.414Z,13.28
2022-10-08T00:02:13.453Z,13.29
2022-10-08T00:03:19.054Z,13.36
2022-10-08T00:04:22.048Z,13.35
2022-10-08T00:05:24.297Z,13.32
2022-10-08T00:06:29.975Z,13.33
2022-10-08T00:07:32.209Z,13.28
2022-10-08T00:08:37.102Z,13.38
2022-10-08T00:09:39.289Z,13.37
2022-10-08T00:10:41.450Z,13.48
2022-10-08T00:11:43.769Z,13.50
2022-10-08T00:12:46.263Z,13.56
2022-10-08T00:13:50.323Z,13.46
2022-10-08T00:14:52.622Z,13.32
2022-10-08T00:15:55.078Z,13.24
2022-10-08T00:16:57.366Z,13.12
2022-10-08T00:17:59.514Z,13.19
2022-10-08T00:19:06.073Z,13.25
2022-10-08T00:20:09.666Z,13.31
2022-10-08T00:21:18.705Z,13.38
2022-10-08T00:22:21.059Z,13.43
2022-10-08T00:23:24.161Z,13.49
2022-10-08T00:24:27.537Z,13.53
2022-10-08T00:25:29.662Z,13.54
2022-10-08T00:26:37.478Z,13.54
2022-10-08T00:27:42.317Z,13.58
2022-10-08T00:28:46.312Z,13.59
2022-10-08T00:29:48.481Z,13.62
2022-10-08T00:30:50.638Z,13.67
2022-10-08T00:31:52.840Z,13.70
2022-10-08T00:32:59.760Z,13.65
2022-10-08T00:34:07.177Z,13.67
2022-10-08T00:35:09.340Z,13.65
2022-10-08T00:36:12.956Z,13.71
2022-10-08T00:37:15.366Z,13.67
2022-10-08T00:38:17.522Z,13.69
2022-10-08T00:39:21.805Z,13.66
2022-10-08T00:40:25.067Z,13.74
2022-10-08T00:41:29.948Z,13.76
2022-10-08T00:42:32.136Z,13.69
2022-10-08T00:43:44.896Z,13.69
2022-10-08T00:44:47.054Z,13.72
2022-10-08T00:45:49.724Z,13.67
2022-10-08T00:46:52.036Z,13.66
2022-10-08T00:47:56.160Z,13.64
2022-10-08T00:49:03.170Z,13.59
2022-10-08T00:50:08.953Z,13.45
2022-10-08T00:51:11.604Z,13.33
2022-10-08T00:52:13.966Z,13.25
2022-10-08T00:53:16.233Z,13.25
2022-10-08T00:54:20.701Z,13.33
2022-10-08T00:55:27.053Z,13.35
2022-10-08T00:56:34.304Z,13.41
2022-10-08T00:57:38.715Z,13.31
2022-10-08T00:58:41.765Z,13.29
2022-10-08T00:59:44.110Z,13.35
2022-10-08T01:00:47.739Z,13.41
2022-10-08T01:01:50.130Z,13.40
2022-10-08T01:02:53.827Z,13.30
2022-10-08T01:03:57.698Z,13.24
2022-10-08T01:05:00.671Z,13.14
2022-10-08T01:06:15.864Z,13.23
2022-10-08T01:07:26.122Z,13.18
2022-10-08T01:08:57.491Z,13.05
2022-10-08T01:10:10.673Z,13.01
2022-10-08T01:11:31.250Z,13.07
2022-10-08T01:13:01.701Z,13.10
2022-10-08T01:14:25.131Z,13.04
2022-10-08T01:15:44.629Z,12.96
2022-10-08T01:16:55.861Z,12.84
2022-10-08T01:18:19.133Z,12.86
2022-10-08T01:19:42.530Z,12.83
2022-10-08T01:20:57.550Z,12.85
2022-10-08T01:22:20.365Z,12.86
2022-10-08T01:23:41.786Z,12.83
2022-10-08T01:25:09.464Z,12.79
2022-10-08T01:26:31.969Z,12.85
2022-10-08T01:27:43.183Z,12.83
2022-10-08T01:29:05.162Z,12.91
2022-10-08T01:30:12.579Z,13.03
2022-10-08T01:31:20.783Z,13.09
2022-10-08T01:32:29.011Z,13.12
2022-10-08T01:33:39.113Z,13.13
2022-10-08T01:34:45.703Z,13.23
2022-10-08T01:35:54.140Z,13.21
2022-10-08T01:36:59.230Z,13.04
2022-10-08T01:38:07.001Z,13.10
2022-10-08T01:39:14.037Z,13.01
2022-10-08T01:40:22.401Z,12.84
2022-10-08T01:41:26.760Z,12.82
2022-10-08T01:42:29.079Z,12.81
2022-10-08T01:43:35.402Z,12.87
2022-10-08T01:44:46.333Z,12.87
2022-10-08T01:45:56.982Z,12.93
2022-10-08T01:47:03.781Z,12.97
2022-10-08T01:48:12.300Z,12.98
2022-10-08T01:49:22.636Z,13.09
2022-10-08T01:50:32.898Z,13.08
2022-10-08T01:51:40.949Z,13.07
2022-10-08T01:52:48.772Z,13.08
2022-10-08T01:53:52.453Z,13.09
2022-10-08T01:55:00.208Z,13.07
2022-10-08T01:56:05.866Z,13.08
2022-10-08T01:57:10.837Z,13.11
2022-10-08T01:58:19.028Z,13.14
2022-10-08T01:59:27.608Z,13.12
2022-10-08T02:00:32.146Z,13.18
2022-10-08T02:01:37.071Z,13.23
2022-10-08T02:02:40.121Z,13.24
2022-10-08T02:04:02.462Z,13.30
2022-10-08T02:05:06.124Z,13.34
2022-10-08T02:06:08.578Z,13.38
2022-10-08T02:07:20.143Z,13.41
2022-10-08T02:08:22.940Z,13.45
2022-10-08T02:09:27.167Z,13.45
2022-10-08T02:10:29.357Z,13.30
2022-10-08T02:11:31.647Z,13.23
2022-10-08T02:12:35.091Z,13.13
2022-10-08T02:13:37.256Z,13.12
2022-10-08T02:14:43.486Z,13.10
2022-10-08T02:15:59.499Z,12.99
2022-10-08T02:17:10.887Z,12.91
2022-10-08T02:18:20.464Z,12.90
2022-10-08T02:19:32.725Z,12.80
2022-10-08T02:20:43.820Z,12.84
2022-10-08T02:21:59.744Z,12.74
2022-10-08T02:23:23.457Z,12.77
2022-10-08T02:24:38.144Z,12.81
2022-10-08T02:25:53.273Z,12.91
2022-10-08T02:26:58.867Z,13.01
2022-10-08T02:28:43.309Z,13.06
2022-10-08T02:29:58.136Z,13.12
2022-10-08T02:31:08.251Z,13.16
2022-10-08T02:32:23.574Z,13.27
2022-10-08T02:33:32.878Z,13.33
2022-10-08T02:34:47.289Z,13.38
2022-10-08T02:35:56.512Z,13.47
2022-10-08T02:37:15.231Z,13.52
2022-10-08T02:38:23.560Z,13.60
2022-10-08T02:39:30.726Z,13.61
2022-10-08T02:40:37.281Z,13.61
2022-10-08T02:41:45.585Z,13.62
2022-10-08T02:42:53.115Z,13.63
2022-10-08T02:43:59.539Z,13.73
2022-10-08T02:45:29.931Z,13.79
2022-10-08T02:46:37.747Z,13.90
2022-10-08T02:47:42.441Z,14.03
2022-10-08T02:49:07.635Z,14.07
2022-10-08T02:50:18.287Z,14.23
2022-10-08T02:51:21.100Z,14.26
2022-10-08T02:52:27.213Z,14.21
2022-10-08T02:53:30.107Z,14.11
2022-10-08T02:54:36.283Z,14.20
2022-10-08T02:55:47.410Z,14.13
2022-10-08T02:57:09.410Z,14.18
2022-10-08T02:58:13.375Z,14.17
2022-10-08T02:59:17.910Z,14.09
2022-10-08T03:00:20.324Z,14.11
2022-10-08T03:01:28.651Z,14.07
2022-10-08T03:02:46.191Z,14.06
2022-10-08T03:03:55.081Z,14.06
2022-10-08T03:05:02.571Z,14.11
2022-10-08T03:06:08.512Z,14.03
2022-10-08T03:07:12.389Z,14.13
2022-10-08T03:08:16.110Z,14.24
2022-10-08T03:09:21.270Z,14.29
2022-10-08T03:10:25.939Z,14.14
2022-10-08T03:11:30.639Z,14.05
2022-10-08T03:12:33.953Z,14.12
2022-10-08T03:13:40.436Z,14.17
2022-10-08T03:14:47.770Z,14.26
2022-10-08T03:15:53.675Z,14.34
2022-10-08T03:16:56.095Z,14.40
2022-10-08T03:17:59.141Z,14.35
2022-10-08T03:19:04.164Z,14.39
2022-10-08T03:20:08.996Z,14.40
2022-10-08T03:21:14.889Z,14.43
2022-10-08T03:22:17.585Z,14.38
2022-10-08T03:23:19.802Z,14.47
2022-10-08T03:24:22.375Z,14.52
2022-10-08T03:25:24.557Z,14.57
2022-10-08T03:26:26.724Z,14.58
2022-10-08T03:27:28.963Z,14.58
2022-10-08T03:28:31.252Z,14.61
2022-10-08T03:29:33.468Z,14.61
2022-10-08T03:30:35.696Z,14.64
2022-10-08T03:31:38.424Z,14.65
2022-10-08T03:32:40.603Z,14.67
2022-10-08T03:33:42.766Z,14.72
2022-10-08T03:34:45.085Z,14.66
2022-10-08T03:35:47.689Z,14.74
2022-10-08T03:36:49.846Z,14.65
2022-10-08T03:37:53.670Z,14.58
2022-10-08T03:38:55.890Z,14.61
2022-10-08T03:39:58.072Z,14.63
2022-10-08T03:41:00.425Z,14.61
2022-10-08T03:42:02.663Z,14.49
2022-10-08T03:43:04.929Z,14.48
2022-10-08T03:44:09.103Z,14.40
2022-10-08T03:45:11.259Z,14.36
2022-10-08T03:46:14.594Z,14.46
2022-10-08T03:47:16.825Z,14.50
2022-10-08T03:48:20.247Z,14.44
2022-10-08T03:49:22.417Z,14.31
2022-10-08T03:50:24.757Z,14.26
2022-10-08T03:51:26.920Z,14.31
2022-10-08T03:52:30.684Z,14.31
2022-10-08T03:53:34.925Z,14.33
2022-10-08T03:54:37.771Z,14.47
2022-10-08T03:55:39.920Z,14.29
2022-10-08T03:56:42.067Z,14.30
2022-10-08T03:57:44.367Z,14.34
2022-10-08T03:58:47.725Z,14.34
2022-10-08T03:59:49.915Z,14.33
2022-10-08T04:00:58.929Z,14.38
2022-10-08T04:02:01.172Z,14.33
2022-10-08T04:03:03.697Z,14.40
2022-10-08T04:04:05.884Z,14.45
2022-10-08T04:05:08.447Z,14.50
2022-10-08T04:06:11.623Z,14.42
2022-10-08T04:07:13.802Z,14.50
2022-10-08T04:08:16.119Z,14.55
2022-10-08T04:09:18.343Z,14.54
2022-10-08T04:10:20.490Z,14.59
2022-10-08T04:11:22.687Z,14.49
2022-10-08T04:12:24.874Z,14.39
2022-10-08T04:13:27.033Z,14.36
2022-10-08T04:14:29.199Z,14.45
2022-10-08T04:15:31.390Z,14.51
2022-10-08T04:16:33.663Z,14.40
2022-10-08T04:17:35.796Z,14.43
2022-10-08T04:18:38.125Z,14.37
2022-10-08T04:19:40.296Z,14.38
2022-10-08T04:20:43.123Z,14.36
2022-10-08T04:21:45.481Z,14.31
2022-10-08T04:22:49.006Z,14.28
2022-10-08T04:23:51.587Z,14.27
2022-10-08T04:24:53.864Z,14.14
2022-10-08T04:25:56.231Z,14.15
2022-10-08T04:26:58.402Z,14.19
2022-10-08T04:28:00.573Z,14.18
2022-10-08T04:29:02.805Z,14.25
2022-10-08T04:30:06.199Z,14.27
2022-10-08T04:31:12.765Z,14.28
2022-10-08T04:32:16.123Z,14.28
2022-10-08T04:33:18.439Z,14.26
2022-10-08T04:34:20.636Z,14.22
2022-10-08T04:35:22.919Z,14.21
2022-10-08T04:36:25.611Z,14.17
2022-10-08T04:37:27.779Z,14.13
2022-10-08T04:38:29.950Z,14.13
2022-10-08T04:39:32.146Z,14.19
2022-10-08T04:40:34.324Z,14.23
2022-10-08T04:41:36.467Z,14.19
2022-10-08T04:42:38.771Z,14.25
2022-10-08T04:43:42.336Z,14.24
2022-10-08T04:44:44.523Z,14.31
2022-10-08T04:45:46.919Z,14.36
2022-10-08T04:46:49.252Z,14.42
2022-10-08T04:47:51.510Z,14.51
2022-10-08T04:48:55.647Z,14.51
2022-10-08T04:49:57.800Z,14.50
2022-10-08T04:51:03.446Z,14.46
2022-10-08T04:52:07.216Z,14.48
2022-10-08T04:53:09.387Z,14.54
2022-10-08T04:54:11.583Z,14.35
2022-10-08T04:55:13.871Z,14.33
2022-10-08T04:56:22.471Z,14.34
2022-10-08T04:57:24.626Z,14.31
2022-10-08T04:58:26.781Z,14.18
2022-10-08T04:59:28.985Z,14.18
2022-10-08T05:00:31.134Z,14.25
2022-10-08T05:01:33.405Z,14.27
2022-10-08T05:02:35.701Z,14.23
2022-10-08T05:03:39.415Z,14.24
2022-10-08T05:04:41.563Z,14.24
2022-10-08T05:05:45.587Z,14.26
2022-10-08T05:06:47.779Z,14.23
2022-10-08T05:07:50.630Z,14.24
2022-10-08T05:08:53.007Z,14.12
2022-10-08T05:09:55.178Z,14.06
2022-10-08T05:10:57.456Z,14.05
2022-10-08T05:11:59.604Z,14.05
2022-10-08T05:13:02.450Z,14.02
2022-10-08T05:14:05.164Z,13.95
2022-10-08T05:15:07.819Z,13.93
2022-10-08T05:16:13.026Z,13.91
2022-10-08T05:17:15.457Z,13.98
2022-10-08T05:18:17.635Z,13.98
2022-10-08T05:19:19.834Z,13.92
2022-10-08T05:20:22.058Z,13.94
2022-10-08T05:21:26.876Z,14.03
2022-10-08T05:22:29.151Z,14.14
2022-10-08T05:23:31.330Z,14.17
2022-10-08T05:24:33.955Z,14.10
2022-10-08T05:25:36.704Z,14.09
2022-10-08T05:28:04.163Z,13.98
2022-10-08T05:29:06.407Z,13.90
2022-10-08T05:30:09.004Z,13.95
2022-10-08T05:31:11.281Z,13.93
2022-10-08T05:32:13.497Z,13.91
2022-10-08T05:33:15.735Z,13.90
2022-10-08T05:34:17.882Z,13.89
2022-10-08T05:35:20.242Z,13.82
2022-10-08T05:36:26.354Z,13.76
2022-10-08T05:37:28.563Z,13.62
2022-10-08T05:38:34.764Z,13.62
2022-10-08T05:39:37.369Z,13.60
2022-10-08T05:40:39.515Z,13.66
2022-10-08T05:41:42.009Z,13.73
2022-10-08T05:42:44.410Z,13.68
2022-10-08T05:43:47.619Z,13.59
2022-10-08T05:44:49.806Z,13.66
2022-10-08T05:45:52.135Z,13.58
2022-10-08T05:46:54.332Z,13.66
2022-10-08T05:47:56.557Z,13.61
2022-10-08T05:49:01.124Z,13.55
2022-10-08T05:50:03.496Z,13.51
2022-10-08T05:51:14.493Z,13.47
2022-10-08T05:52:17.036Z,13.49
2022-10-08T05:53:19.206Z,13.50
2022-10-08T05:54:21.862Z,13.44
2022-10-08T05:55:24.097Z,13.50
2022-10-08T05:56:27.743Z,13.57
2022-10-08T05:57:29.867Z,13.65
2022-10-08T05:58:34.902Z,13.54
2022-10-08T05:59:37.090Z,13.52
2022-10-08T06:00:39.446Z,13.48
2022-10-08T06:01:41.628Z,13.46
2022-10-08T06:02:43.885Z,13.48
2022-10-08T06:03:57.081Z,13.52
2022-10-08T06:04:59.270Z,13.51
2022-10-08T06:06:07.240Z,13.61
2022-10-08T06:07:09.427Z,13.70
2022-10-08T06:08:12.428Z,13.75
2022-10-08T06:09:18.247Z,13.77
2022-10-08T06:10:20.501Z,13.67
2022-10-08T06:11:22.656Z,13.68
2022-10-08T06:12:24.978Z,13.65
2022-10-08T06:13:27.391Z,13.60
2022-10-08T06:14:29.599Z,13.64
2022-10-08T06:15:31.848Z,13.74
2022-10-08T06:16:34.705Z,13.64
2022-10-08T06:17:36.905Z,13.59
2022-10-08T06:18:41.198Z,13.57
2022-10-08T06:19:43.453Z,13.64
2022-10-08T06:20:45.855Z,13.67
2022-10-08T06:21:48.448Z,13.79
2022-10-08T06:22:50.999Z,13.79
2022-10-08T06:23:57.920Z,13.69
2022-10-08T06:25:00.164Z,13.76
2022-10-08T06:26:07.388Z,13.71
2022-10-08T06:27:09.643Z,13.60
2022-10-08T06:28:12.544Z,13.62
2022-10-08T06:29:17.205Z,13.65
2022-10-08T06:30:19.423Z,13.83
2022-10-08T06:31:22.117Z,13.91
2022-10-08T06:32:24.372Z,13.99
2022-10-08T06:33:27.152Z,14.05
2022-10-08T06:34:29.336Z,13.97
2022-10-08T06:35:31.585Z,14.10
2022-10-08T06:36:35.015Z,14.20
2022-10-08T06:37:37.253Z,14.16
2022-10-08T06:38:39.481Z,14.34
2022-10-08T06:39:46.134Z,14.52
2022-10-08T06:40:50.419Z,14.52
2022-10-08T06:41:52.623Z,14.39
2022-10-08T06:42:55.944Z,14.31
2022-10-08T06:43:58.194Z,14.46
2022-10-08T06:45:11.091Z,14.48
2022-10-08T06:46:13.343Z,14.42
2022-10-08T06:47:15.797Z,14.51
2022-10-08T06:48:19.806Z,14.50
2022-10-08T06:49:26.479Z,14.61
2022-10-08T06:50:28.712Z,14.62
2022-10-08T06:51:30.992Z,14.54
2022-10-08T06:52:33.338Z,14.57
2022-10-08T06:53:35.737Z,14.62
2022-10-08T06:54:38.013Z,14.62
2022-10-08T06:55:40.282Z,14.66
2022-10-08T06:56:42.563Z,14.75
2022-10-08T06:57:44.734Z,14.64
2022-10-08T06:58:47.543Z,14.79
2022-10-08T06:59:49.784Z,14.67
2022-10-08T07:01:06.569Z,14.62
2022-10-08T07:02:10.598Z,14.87
2022-10-08T07:03:12.837Z,14.91
2022-10-08T07:04:15.079Z,14.97
2022-10-08T07:05:17.446Z,15.08
2022-10-08T07:06:19.706Z,15.14
2022-10-08T07:07:21.983Z,15.17
2022-10-08T07:08:24.135Z,15.16
2022-10-08T07:09:26.334Z,15.18
2022-10-08T07:10:33.023Z,15.15
2022-10-08T07:11:36.080Z,14.96
2022-10-08T07:12:38.353Z,15.01
2022-10-08T07:13:40.958Z,14.97
2022-10-08T07:14:44.642Z,15.10
2022-10-08T07:15:46.820Z,15.21
2022-10-08T07:16:49.025Z,15.35
2022-10-08T07:17:51.233Z,15.19
2022-10-08T07:18:55.092Z,15.09
2022-10-08T07:19:57.649Z,14.96
2022-10-08T07:20:59.934Z,14.92
2022-10-08T07:22:02.138Z,14.97
2022-10-08T07:23:05.343Z,15.01
2022-10-08T07:24:07.584Z,15.09
2022-10-08T07:25:09.773Z,15.37
2022-10-08T07:26:15.873Z,15.46
2022-10-08T07:27:19.432Z,15.16
2022-10-08T07:28:21.596Z,15.11
2022-10-08T07:29:24.917Z,15.47
2022-10-08T07:30:27.139Z,15.59
2022-10-08T07:31:31.984Z,15.82
2022-10-08T07:32:34.306Z,15.79
2022-10-08T07:33:36.491Z,15.91
2022-10-08T07:34:38.634Z,15.92
2022-10-08T07:35:40.793Z,15.67
2022-10-08T07:36:43.095Z,15.71
2022-10-08T07:37:45.351Z,15.84
2022-10-08T07:38:50.595Z,15.76
2022-10-08T07:39:52.765Z,15.85
2022-10-08T07:40:54.957Z,15.69
2022-10-08T07:41:57.144Z,16.00
2022-10-08T07:42:59.358Z,16.19
2022-10-08T07:44:02.893Z,16.29
2022-10-08T07:45:05.324Z,16.05
2022-10-08T07:46:09.487Z,16.19
2022-10-08T07:47:11.726Z,16.47
2022-10-08T07:48:14.134Z,16.58
2022-10-08T07:49:18.200Z,16.70
2022-10-08T07:50:20.381Z,16.37
2022-10-08T07:51:23.155Z,16.15
2022-10-08T07:52:25.965Z,16.19
2022-10-08T07:53:28.145Z,16.10
2022-10-08T07:54:30.345Z,16.24
2022-10-08T07:55:32.545Z,16.25
2022-10-08T07:56:35.592Z,16.06
2022-10-08T07:57:37.794Z,16.44
2022-10-08T07:58:40.423Z,16.68
2022-10-08T07:59:42.593Z,16.71
2022-10-08T08:00:44.983Z,16.57
2022-10-08T08:01:47.238Z,16.80
2022-10-08T08:02:49.696Z,16.90
2022-10-08T08:03:55.091Z,17.12
2022-10-08T08:04:57.350Z,17.32
2022-10-08T08:06:09.343Z,16.96
2022-10-08T08:07:11.591Z,17.07
2022-10-08T08:08:13.803Z,17.09
2022-10-08T08:09:16.342Z,16.95
2022-10-08T08:10:18.519Z,16.83
2022-10-08T08:11:23.747Z,16.82
2022-10-08T08:12:25.965Z,17.04
2022-10-08T08:13:33.034Z,17.05
2022-10-08T08:14:38.106Z,17.46
2022-10-08T08:15:40.326Z,17.24
2022-10-08T08:16:42.682Z,17.15
2022-10-08T08:17:44.898Z,17.42
2022-10-08T08:18:49.692Z,17.73
2022-10-08T08:19:51.862Z,17.41
2022-10-08T08:20:59.017Z,17.44
2022-10-08T08:22:02.098Z,17.34
2022-10-08T08:23:04.421Z,17.58
2022-10-08T08:24:12.242Z,17.50
2022-10-08T08:25:14.567Z,17.12
2022-10-08T08:26:20.008Z,17.24
2022-10-08T08:27:22.166Z,16.72
2022-10-08T08:28:26.020Z,16.68
2022-10-08T08:29:28.305Z,16.74
2022-10-08T08:30:30.487Z,16.70
2022-10-08T08:31:38.472Z,16.57
2022-10-08T08:32:40.785Z,16.46
2022-10-08T08:33:47.280Z,16.60
2022-10-08T08:34:49.466Z,16.84
2022-10-08T08:35:55.583Z,16.96
2022-10-08T08:36:59.319Z,17.18
2022-10-08T08:38:01.451Z,16.99
2022-10-08T08:39:04.410Z,16.89
2022-10-08T08:40:07.208Z,16.89
2022-10-08T08:41:30.390Z,17.33
2022-10-08T08:42:43.390Z,17.39
2022-10-08T08:43:45.879Z,17.55
2022-10-08T08:45:00.502Z,18.30
2022-10-08T08:46:03.695Z,18.73
2022-10-08T08:47:12.966Z,19.03
2022-10-08T08:48:28.916Z,18.84
2022-10-08T08:49:41.096Z,18.93
2022-10-08T08:50:48.720Z,18.88
2022-10-08T08:51:53.199Z,18.54
2022-10-08T08:52:55.971Z,18.58
2022-10-08T08:53:59.540Z,17.82
2022-10-08T08:55:02.114Z,18.12
2022-10-08T08:56:08.167Z,17.35
2022-10-08T08:57:26.273Z,17.68
2022-10-08T08:58:37.304Z,17.58
2022-10-08T08:59:45.103Z,17.92
2022-10-08T09:00:54.811Z,17.64
2022-10-08T09:02:02.674Z,18.23
2022-10-08T09:03:22.841Z,17.89
2022-10-08T09:04:29.587Z,18.25
2022-10-08T09:05:35.789Z,17.90
2022-10-08T09:06:39.646Z,17.84
2022-10-08T09:07:46.835Z,17.97
2022-10-08T09:09:31.165Z,17.37
2022-10-08T09:10:42.550Z,17.43
2022-10-08T09:11:45.294Z,17.75
2022-10-08T09:12:50.941Z,17.67
2022-10-08T09:14:03.450Z,17.38
2022-10-08T09:15:14.044Z,17.02
2022-10-08T09:16:18.177Z,17.19
2022-10-08T09:17:30.002Z,17.40
2022-10-08T09:18:33.284Z,17.67
2022-10-08T09:19:37.280Z,17.98
2022-10-08T09:20:40.445Z,18.13
2022-10-08T09:21:43.110Z,18.21
2022-10-08T09:22:46.432Z,17.79
2022-10-08T09:23:49.139Z,17.80
2022-10-08T09:24:58.245Z,18.16
2022-10-08T09:26:22.984Z,17.93
2022-10-08T09:27:25.208Z,18.02
2022-10-08T09:28:47.422Z,18.23
2022-10-08T09:29:49.859Z,18.03
2022-10-08T09:30:52.153Z,17.69
2022-10-08T09:31:54.535Z,17.63
2022-10-08T09:33:00.396Z,17.60
2022-10-08T09:34:17.770Z,17.56
2022-10-08T09:35:20.247Z,17.37
2022-10-08T09:36:48.532Z,17.61
2022-10-08T09:37:51.490Z,17.77
2022-10-08T09:38:59.320Z,18.06
2022-10-08T09:40:13.710Z,18.40
2022-10-08T09:41:15.877Z,18.53
2022-10-08T09:42:18.186Z,18.55
2022-10-08T09:43:20.373Z,18.43
2022-10-08T09:44:23.360Z,18.69
2022-10-08T09:45:54.718Z,18.63
2022-10-08T09:47:10.724Z,18.97
2022-10-08T09:48:26.594Z,18.92
2022-10-08T09:49:32.154Z,19.14
2022-10-08T09:50:36.968Z,18.61
2022-10-08T09:51:42.674Z,18.32
2022-10-08T09:52:48.745Z,18.69
2022-10-08T09:53:59.238Z,18.54
2022-10-08T09:55:30.854Z,18.55
2022-10-08T09:56:33.957Z,18.41
2022-10-08T09:57:45.942Z,18.76
2022-10-08T09:58:58.868Z,18.77
2022-10-08T10:00:04.688Z,19.16
2022-10-08T10:01:14.628Z,18.97
2022-10-08T10:02:28.859Z,19.16
2022-10-08T10:03:32.442Z,18.96
2022-10-08T10:04:38.712Z,19.07
2022-10-08T10:05:41.447Z,19.13
2022-10-08T10:06:48.386Z,19.15
2022-10-08T10:07:51.412Z,19.40
2022-10-08T10:09:06.423Z,19.30
2022-10-08T10:10:17.679Z,19.49
2022-10-08T10:11:47.861Z,19.79
2022-10-08T10:13:12.961Z,20.03
2022-10-08T10:14:21.772Z,19.91
2022-10-08T10:15:34.781Z,19.56
2022-10-08T10:16:41.145Z,19.51
2022-10-08T10:17:49.571Z,19.58
2022-10-08T10:19:00.236Z,19.60
2022-10-08T10:20:20.377Z,19.86
2022-10-08T10:21:59.637Z,20.27
2022-10-08T10:23:15.375Z,20.10
2022-10-08T10:24:48.402Z,20.39
2022-10-08T10:26:13.935Z,20.73
2022-10-08T10:27:35.372Z,20.51
2022-10-08T10:28:59.573Z,20.15
2022-10-08T10:30:13.689Z,20.32
2022-10-08T10:31:35.264Z,19.32
2022-10-08T10:32:49.197Z,19.75
2022-10-08T10:34:03.055Z,20.15
2022-10-08T10:35:29.812Z,20.48
2022-10-08T10:36:38.463Z,20.29
2022-10-08T10:37:57.140Z,19.75
2022-10-08T10:39:35.327Z,19.17
2022-10-08T10:40:50.107Z,19.04
2022-10-08T10:42:04.125Z,19.05
2022-10-08T10:43:39.611Z,18.79
2022-10-08T10:44:51.870Z,18.62
2022-10-08T10:45:58.151Z,18.58
2022-10-08T10:47:03.155Z,18.28
2022-10-08T10:48:08.283Z,18.31
2022-10-08T10:49:17.352Z,18.59
2022-10-08T10:50:45.703Z,18.72
2022-10-08T10:52:34.483Z,18.07
2022-10-08T10:54:16.314Z,18.40
2022-10-08T10:55:18.881Z,18.66
2022-10-08T10:56:22.353Z,19.06
2022-10-08T10:57:47.142Z,18.89
2022-10-08T10:59:36.674Z,18.78
2022-10-08T11:00:53.827Z,19.05
2022-10-08T11:02:16.042Z,18.85
2022-10-08T11:03:46.977Z,18.35
2022-10-08T11:05:25.228Z,18.18
2022-10-08T11:06:33.169Z,17.95
2022-10-08T11:07:57.022Z,18.37
2022-10-08T11:09:06.059Z,17.97
2022-10-08T11:10:16.224Z,18.20
2022-10-08T11:11:23.707Z,17.81
2022-10-08T11:12:47.935Z,17.59
2022-10-08T11:14:21.688Z,17.76
2022-10-08T11:15:35.340Z,17.85
2022-10-08T11:16:46.602Z,17.95
2022-10-08T11:18:27.256Z,17.83
2022-10-08T11:19:49.929Z,18.37
2022-10-08T11:21:30.544Z,18.85
2022-10-08T11:22:42.799Z,18.85
2022-10-08T11:23:50.804Z,18.96
2022-10-08T11:25:01.600Z,18.98
2022-10-08T11:26:39.163Z,18.51
2022-10-08T11:28:18.231Z,18.54
2022-10-08T11:29:32.205Z,18.52
2022-10-08T11:31:21.637Z,18.47
2022-10-08T11:32:24.767Z,17.84
2022-10-08T11:33:28.176Z,17.79
2022-10-08T11:34:34.494Z,17.69
2022-10-08T11:35:46.388Z,17.70
2022-10-08T11:36:56.108Z,17.73
2022-10-08T11:38:14.722Z,17.56
2022-10-08T11:39:19.682Z,17.60
2022-10-08T11:40:41.698Z,17.96
2022-10-08T11:41:53.538Z,18.35
2022-10-08T11:43:17.312Z,18.20
2022-10-08T11:44:21.291Z,18.09
2022-10-08T11:45:23.499Z,18.39
2022-10-08T11:46:28.977Z,18.37
2022-10-08T11:47:43.587Z,18.14
2022-10-08T11:48:45.965Z,18.23
2022-10-08T11:49:54.087Z,17.96
2022-10-08T11:51:18.893Z,18.20
2022-10-08T11:52:21.195Z,18.47
2022-10-08T11:53:23.434Z,19.09
2022-10-08T11:54:31.937Z,19.21
2022-10-08T11:55:34.210Z,18.73
2022-10-08T11:57:22.840Z,18.47
2022-10-08T11:58:30.858Z,18.77
2022-10-08T11:59:45.870Z,19.07
2022-10-08T12:00:48.393Z,18.64
2022-10-08T12:01:57.531Z,18.62
2022-10-08T12:03:00.894Z,18.79
2022-10-08T12:04:10.677Z,19.12
2022-10-08T12:05:21.596Z,19.12
2022-10-08T12:06:28.452Z,19.06
2022-10-08T12:07:35.142Z,18.88
2022-10-08T12:08:58.126Z,18.87
2022-10-08T12:10:05.970Z,19.13
2022-10-08T12:11:30.702Z,19.62
2022-10-08T12:12:50.942Z,19.24
2022-10-08T12:14:19.015Z,19.46
2022-10-08T12:15:23.903Z,19.71
2022-10-08T12:16:48.865Z,19.62
2022-10-08T12:17:54.246Z,19.44
2022-10-08T12:18:58.034Z,19.57
2022-10-08T12:20:22.161Z,19.03
2022-10-08T12:21:48.427Z,19.26
2022-10-08T12:23:19.682Z,19.04
2022-10-08T12:24:36.747Z,19.09
2022-10-08T12:26:02.585Z,19.00
2022-10-08T12:27:16.940Z,19.20
2022-10-08T12:28:19.169Z,19.55
2022-10-08T12:29:48.065Z,19.44
2022-10-08T12:30:52.434Z,19.09
2022-10-08T12:32:01.986Z,19.28
2022-10-08T12:33:04.196Z,19.34
2022-10-08T12:34:19.517Z,19.38
2022-10-08T12:35:34.384Z,19.64
2022-10-08T12:36:48.330Z,19.94
2022-10-08T12:37:56.254Z,19.68
2022-10-08T12:39:04.952Z,19.93
2022-10-08T12:40:21.379Z,19.78
2022-10-08T12:42:01.050Z,19.60
2022-10-08T12:43:45.389Z,19.61
2022-10-08T12:45:15.267Z,19.15
2022-10-08T12:46:17.786Z,18.67
2022-10-08T12:47:40.282Z,18.72
2022-10-08T12:48:50.364Z,18.95
2022-10-08T12:50:00.050Z,19.09
2022-10-08T12:51:25.915Z,19.27
2022-10-08T12:52:35.171Z,19.18
2022-10-08T12:53:42.138Z,19.19
2022-10-08T12:54:56.516Z,19.41
2022-10-08T12:55:59.078Z,19.21
2022-10-08T12:57:09.053Z,18.83
2022-10-08T12:58:17.779Z,18.97
2022-10-08T12:59:22.676Z,18.77
2022-10-08T13:00:30.624Z,18.45
2022-10-08T13:01:34.291Z,18.65
2022-10-08T13:02:41.849Z,18.73
2022-10-08T13:03:44.081Z,18.72
2022-10-08T13:04:46.689Z,18.78
2022-10-08T13:05:49.601Z,18.72
2022-10-08T13:06:54.286Z,18.79
2022-10-08T13:07:56.680Z,18.80
2022-10-08T13:08:58.848Z,18.91
2022-10-08T13:10:16.193Z,18.86
2022-10-08T13:11:18.716Z,18.79
2022-10-08T13:12:20.920Z,18.60
2022-10-08T13:13:35.569Z,18.69
2022-10-08T13:14:39.402Z,18.71
2022-10-08T13:15:41.935Z,18.67
2022-10-08T13:16:47.333Z,18.59
2022-10-08T13:17:50.121Z,18.59
2022-10-08T13:18:57.292Z,18.54
2022-10-08T13:20:10.273Z,18.54
2022-10-08T13:21:30.817Z,18.49
2022-10-08T13:22:33.092Z,18.47
2022-10-08T13:23:39.442Z,18.45
2022-10-08T13:24:43.358Z,18.42
2022-10-08T13:25:45.711Z,18.33
2022-10-08T13:26:52.576Z,18.42
2022-10-08T13:28:48.469Z,18.79
2022-10-08T13:29:49.674Z,19.32
2022-10-08T13:30:57.187Z,19.29
2022-10-08T13:32:11.191Z,18.99
2022-10-08T13:33:21.686Z,19.17
2022-10-08T13:34:28.204Z,19.16
2022-10-08T13:35:30.482Z,19.27
2022-10-08T13:36:37.117Z,19.55
2022-10-08T13:37:40.552Z,18.68
2022-10-08T13:38:42.721Z,18.51
2022-10-08T13:39:55.469Z,18.59
2022-10-08T13:41:02.864Z,18.33
2022-10-08T13:42:09.311Z,18.71
2022-10-08T13:43:11.763Z,18.63
2022-10-08T13:44:13.947Z,18.76
2022-10-08T13:45:19.766Z,18.85
2022-10-08T13:46:22.003Z,18.66
2022-10-08T13:47:24.300Z,18.73
2022-10-08T13:48:26.638Z,18.72
2022-10-08T13:49:29.455Z,18.77
2022-10-08T13:50:31.963Z,18.81
2022-10-08T13:51:34.277Z,18.68
2022-10-08T13:52:39.267Z,18.86
2022-10-08T13:53:45.365Z,19.10
2022-10-08T13:54:49.143Z,19.15
2022-10-08T13:55:51.926Z,18.77
2022-10-08T13:56:54.349Z,18.84
2022-10-08T13:57:59.935Z,19.20
2022-10-08T13:59:02.084Z,18.98
2022-10-08T14:00:05.250Z,18.80
2022-10-08T14:01:07.623Z,18.89
2022-10-08T14:02:14.232Z,18.81
2022-10-08T14:03:16.818Z,18.66
2022-10-08T14:04:19.470Z,18.76
2022-10-08T14:05:22.549Z,18.66
2022-10-08T14:06:24.764Z,18.31
2022-10-08T14:07:31.004Z,18.32
2022-10-08T14:08:34.267Z,18.23
2022-10-08T14:09:36.431Z,18.48
2022-10-08T14:10:42.643Z,18.33
2022-10-08T14:11:46.311Z,18.36
2022-10-08T14:12:48.595Z,18.37
2022-10-08T14:13:50.728Z,18.37
2022-10-08T14:14:53.563Z,18.32
2022-10-08T14:15:55.747Z,18.39
2022-10-08T14:16:57.941Z,18.17
2022-10-08T14:18:00.138Z,18.13
2022-10-08T14:19:03.625Z,18.29
2022-10-08T14:20:07.357Z,18.22
2022-10-08T14:21:15.613Z,18.40
2022-10-08T14:22:18.872Z,18.59
2022-10-08T14:23:22.097Z,18.98
2022-10-08T14:24:24.377Z,19.10
2022-10-08T14:25:28.574Z,19.08
2022-10-08T14:26:31.102Z,19.10
2022-10-08T14:27:33.407Z,19.44
2022-10-08T14:28:35.705Z,19.22
2022-10-08T14:29:37.925Z,19.47
2022-10-08T14:30:40.071Z,19.00